sensor_id;sensor_type;location;lat;lon;timestamp;P1;durP1;ratioP1;P2;durP2;ratioP2
26062;SDS011;13837;48.562;12.108;2022-09-21T00:00:53;11.88;;;10.93;;
26062;SDS011;13837;48.562;12.108;2022-09-21T00:03:19;11.23;;;10.32;;
26062;SDS011;13837;48.562;12.108;2022-09-21T00:05:45;10.45;;;9.68;;
26062;SDS011;13837;48.562;12.108;2022-09-21T00:08:12;11.50;;;10.52;;
26062;SDS011;13837;48.562;12.108;2022-09-21T00:10:39;11.32;;;10.27;;
26062;SDS011;13837;48.562;12.108;2022-09-21T00:13:05;9.73;;;8.93;;
26062;SDS011;13837;48.562;12.108;2022-09-21T00:15:33;9.68;;;8.88;;
26062;SDS011;13837;48.562;12.108;2022-09-21T00:17:59;13.15;;;12.07;;
26062;SDS011;13837;48.562;12.108;2022-09-21T00:20:26;11.73;;;10.77;;
26062;SDS011;13837;48.562;12.108;2022-09-21T00:22:53;9.55;;;8.68;;
26062;SDS011;13837;48.562;12.108;2022-09-21T00:25:19;10.07;;;8.88;;
26062;SDS011;13837;48.562;12.108;2022-09-21T00:27:46;9.45;;;8.65;;
26062;SDS011;13837;48.562;12.108;2022-09-21T00:32:41;9.73;;;8.90;;
26062;SDS011;13837;48.562;12.108;2022-09-21T00:35:08;9.27;;;8.48;;
26062;SDS011;13837;48.562;12.108;2022-09-21T00:37:34;9.93;;;9.07;;
26062;SDS011;13837;48.562;12.108;2022-09-21T00:40:01;7.78;;;6.85;;
26062;SDS011;13837;48.562;12.108;2022-09-21T00:42:29;10.05;;;9.15;;
26062;SDS011;13837;48.562;12.108;2022-09-21T00:49:56;9.75;;;8.85;;
26062;SDS011;13837;48.562;12.108;2022-09-21T00:52:24;10.18;;;9.48;;
26062;SDS011;13837;48.562;12.108;2022-09-21T00:55:07;10.35;;;9.57;;
26062;SDS011;13837;48.562;12.108;2022-09-21T00:57:35;10.63;;;9.73;;
26062;SDS011;13837;48.562;12.108;2022-09-21T01:00:04;10.07;;;9.38;;
26062;SDS011;13837;48.562;12.108;2022-09-21T01:02:34;10.05;;;9.25;;
26062;SDS011;13837;48.562;12.108;2022-09-21T01:05:01;9.85;;;9.07;;
26062;SDS011;13837;48.562;12.108;2022-09-21T01:07:29;9.50;;;8.80;;
26062;SDS011;13837;48.562;12.108;2022-09-21T01:09:58;11.32;;;10.52;;
26062;SDS011;13837;48.562;12.108;2022-09-21T01:34:20;10.65;;;9.90;;
26062;SDS011;13837;48.562;12.108;2022-09-21T01:36:55;11.35;;;10.50;;
26062;SDS011;13837;48.562;12.108;2022-09-21T01:39:23;11.20;;;10.40;;
26062;SDS011;13837;48.562;12.108;2022-09-21T01:41:51;11.83;;;10.77;;
26062;SDS011;13837;48.562;12.108;2022-09-21T01:44:20;11.38;;;10.57;;
26062;SDS011;13837;48.562;12.108;2022-09-21T01:46:49;11.38;;;10.48;;
26062;SDS011;13837;48.562;12.108;2022-09-21T01:49:20;11.05;;;10.18;;
26062;SDS011;13837;48.562;12.108;2022-09-21T01:51:52;11.00;;;10.30;;
26062;SDS011;13837;48.562;12.108;2022-09-21T01:54:26;10.75;;;10.05;;
26062;SDS011;13837;48.562;12.108;2022-09-21T02:02:12;10.27;;;9.57;;
26062;SDS011;13837;48.562;12.108;2022-09-21T02:04:42;10.10;;;9.40;;
26062;SDS011;13837;48.562;12.108;2022-09-21T02:07:09;10.40;;;9.70;;
26062;SDS011;13837;48.562;12.108;2022-09-21T02:09:35;11.10;;;9.98;;
26062;SDS011;13837;48.562;12.108;2022-09-21T02:12:02;10.25;;;9.48;;
26062;SDS011;13837;48.562;12.108;2022-09-21T02:14:29;10.52;;;9.80;;
26062;SDS011;13837;48.562;12.108;2022-09-21T02:20:02;10.98;;;10.18;;
26062;SDS011;13837;48.562;12.108;2022-09-21T02:25:38;9.82;;;9.00;;
26062;SDS011;13837;48.562;12.108;2022-09-21T02:28:34;10.73;;;9.93;;
26062;SDS011;13837;48.562;12.108;2022-09-21T02:31:24;11.73;;;9.57;;
26062;SDS011;13837;48.562;12.108;2022-09-21T02:34:25;8.90;;;8.30;;
26062;SDS011;13837;48.562;12.108;2022-09-21T02:37:02;11.05;;;10.32;;
26062;SDS011;13837;48.562;12.108;2022-09-21T02:39:41;11.05;;;10.05;;
26062;SDS011;13837;48.562;12.108;2022-09-21T02:42:23;11.20;;;10.27;;
26062;SDS011;13837;48.562;12.108;2022-09-21T02:45:02;10.70;;;9.80;;
26062;SDS011;13837;48.562;12.108;2022-09-21T02:47:53;13.10;;;12.20;;
26062;SDS011;13837;48.562;12.108;2022-09-21T02:50:28;11.68;;;10.88;;
26062;SDS011;13837;48.562;12.108;2022-09-21T02:53:08;11.90;;;10.93;;
26062;SDS011;13837;48.562;12.108;2022-09-21T02:55:35;11.27;;;10.48;;
26062;SDS011;13837;48.562;12.108;2022-09-21T02:58:03;10.00;;;9.20;;
26062;SDS011;13837;48.562;12.108;2022-09-21T03:00:32;12.18;;;11.48;;
26062;SDS011;13837;48.562;12.108;2022-09-21T03:03:00;11.68;;;10.95;;
26062;SDS011;13837;48.562;12.108;2022-09-21T03:05:40;11.60;;;10.90;;
26062;SDS011;13837;48.562;12.108;2022-09-21T03:08:07;11.98;;;11.23;;
26062;SDS011;13837;48.562;12.108;2022-09-21T03:10:33;11.88;;;10.88;;
26062;SDS011;13837;48.562;12.108;2022-09-21T03:13:05;12.32;;;11.40;;
26062;SDS011;13837;48.562;12.108;2022-09-21T03:15:34;11.85;;;11.05;;
26062;SDS011;13837;48.562;12.108;2022-09-21T03:18:04;12.60;;;11.73;;
26062;SDS011;13837;48.562;12.108;2022-09-21T03:20:34;14.68;;;13.50;;
26062;SDS011;13837;48.562;12.108;2022-09-21T03:23:01;13.82;;;12.63;;
26062;SDS011;13837;48.562;12.108;2022-09-21T03:25:27;12.57;;;11.38;;
26062;SDS011;13837;48.562;12.108;2022-09-21T03:27:54;11.32;;;10.32;;
26062;SDS011;13837;48.562;12.108;2022-09-21T03:30:21;9.55;;;8.85;;
26062;SDS011;13837;48.562;12.108;2022-09-21T03:32:48;12.60;;;11.60;;
26062;SDS011;13837;48.562;12.108;2022-09-21T03:35:15;12.50;;;11.68;;
26062;SDS011;13837;48.562;12.108;2022-09-21T03:37:41;10.80;;;10.00;;
26062;SDS011;13837;48.562;12.108;2022-09-21T03:40:07;10.23;;;9.50;;
26062;SDS011;13837;48.562;12.108;2022-09-21T03:42:34;10.05;;;9.40;;
26062;SDS011;13837;48.562;12.108;2022-09-21T03:45:00;11.20;;;10.40;;
26062;SDS011;13837;48.562;12.108;2022-09-21T03:47:26;12.40;;;11.40;;
26062;SDS011;13837;48.562;12.108;2022-09-21T03:49:53;14.70;;;13.38;;
26062;SDS011;13837;48.562;12.108;2022-09-21T03:52:19;13.80;;;12.60;;
26062;SDS011;13837;48.562;12.108;2022-09-21T03:54:45;12.73;;;11.82;;
26062;SDS011;13837;48.562;12.108;2022-09-21T03:57:11;12.43;;;11.63;;
26062;SDS011;13837;48.562;12.108;2022-09-21T03:59:37;12.57;;;11.73;;
26062;SDS011;13837;48.562;12.108;2022-09-21T04:02:03;12.80;;;11.90;;
26062;SDS011;13837;48.562;12.108;2022-09-21T04:04:29;13.40;;;12.50;;
26062;SDS011;13837;48.562;12.108;2022-09-21T04:06:56;13.02;;;12.07;;
26062;SDS011;13837;48.562;12.108;2022-09-21T04:09:23;13.23;;;12.13;;
26062;SDS011;13837;48.562;12.108;2022-09-21T04:11:49;11.80;;;10.95;;
26062;SDS011;13837;48.562;12.108;2022-09-21T04:14:16;13.55;;;12.65;;
26062;SDS011;13837;48.562;12.108;2022-09-21T04:16:42;13.27;;;12.25;;
26062;SDS011;13837;48.562;12.108;2022-09-21T04:19:08;14.10;;;13.02;;
26062;SDS011;13837;48.562;12.108;2022-09-21T04:21:34;15.18;;;13.85;;
26062;SDS011;13837;48.562;12.108;2022-09-21T04:24:00;16.65;;;15.20;;
26062;SDS011;13837;48.562;12.108;2022-09-21T04:26:32;18.00;;;16.42;;
26062;SDS011;13837;48.562;12.108;2022-09-21T04:28:59;17.52;;;15.90;;
26062;SDS011;13837;48.562;12.108;2022-09-21T04:31:27;17.77;;;16.35;;
26062;SDS011;13837;48.562;12.108;2022-09-21T04:33:54;15.77;;;14.57;;
26062;SDS011;13837;48.562;12.108;2022-09-21T04:36:23;14.18;;;12.95;;
26062;SDS011;13837;48.562;12.108;2022-09-21T04:38:50;14.15;;;12.80;;
26062;SDS011;13837;48.562;12.108;2022-09-21T04:41:17;17.33;;;12.40;;
26062;SDS011;13837;48.562;12.108;2022-09-21T04:43:44;14.50;;;13.50;;
26062;SDS011;13837;48.562;12.108;2022-09-21T04:46:12;15.23;;;14.02;;
26062;SDS011;13837;48.562;12.108;2022-09-21T04:51:08;74.13;;;30.58;;
26062;SDS011;13837;48.562;12.108;2022-09-21T04:53:36;77.82;;;31.30;;
26062;SDS011;13837;48.562;12.108;2022-09-21T04:56:03;56.33;;;24.70;;
26062;SDS011;13837;48.562;12.108;2022-09-21T04:58:31;20.65;;;15.65;;
26062;SDS011;13837;48.562;12.108;2022-09-21T05:00:58;14.63;;;13.32;;
26062;SDS011;13837;48.562;12.108;2022-09-21T05:03:25;13.93;;;12.82;;
26062;SDS011;13837;48.562;12.108;2022-09-21T05:05:53;14.38;;;13.20;;
26062;SDS011;13837;48.562;12.108;2022-09-21T05:08:21;15.23;;;14.02;;
26062;SDS011;13837;48.562;12.108;2022-09-21T05:11:08;16.05;;;14.75;;
26062;SDS011;13837;48.562;12.108;2022-09-21T05:13:37;13.73;;;12.55;;
26062;SDS011;13837;48.562;12.108;2022-09-21T05:16:04;14.73;;;13.40;;
26062;SDS011;13837;48.562;12.108;2022-09-21T05:18:31;17.05;;;15.55;;
26062;SDS011;13837;48.562;12.108;2022-09-21T05:20:58;20.63;;;18.80;;
26062;SDS011;13837;48.562;12.108;2022-09-21T05:23:26;20.05;;;18.42;;
26062;SDS011;13837;48.562;12.108;2022-09-21T05:25:54;16.52;;;15.10;;
26062;SDS011;13837;48.562;12.108;2022-09-21T05:28:21;17.25;;;15.82;;
26062;SDS011;13837;48.562;12.108;2022-09-21T05:31:10;20.25;;;18.40;;
26062;SDS011;13837;48.562;12.108;2022-09-21T05:36:47;17.95;;;16.35;;
26062;SDS011;13837;48.562;12.108;2022-09-21T05:39:28;17.05;;;15.70;;
26062;SDS011;13837;48.562;12.108;2022-09-21T05:41:55;15.52;;;14.32;;
26062;SDS011;13837;48.562;12.108;2022-09-21T05:44:21;14.55;;;13.38;;
26062;SDS011;13837;48.562;12.108;2022-09-21T05:52:33;14.15;;;12.23;;
26062;SDS011;13837;48.562;12.108;2022-09-21T05:55:23;12.23;;;11.13;;
26062;SDS011;13837;48.562;12.108;2022-09-21T05:58:14;10.23;;;9.52;;
26062;SDS011;13837;48.562;12.108;2022-09-21T06:04:06;10.23;;;9.20;;
26062;SDS011;13837;48.562;12.108;2022-09-21T06:06:36;10.80;;;9.73;;
26062;SDS011;13837;48.562;12.108;2022-09-21T06:09:02;9.93;;;9.15;;
26062;SDS011;13837;48.562;12.108;2022-09-21T06:11:29;11.27;;;8.80;;
26062;SDS011;13837;48.562;12.108;2022-09-21T06:13:55;9.90;;;9.10;;
26062;SDS011;13837;48.562;12.108;2022-09-21T06:16:21;10.70;;;9.70;;
26062;SDS011;13837;48.562;12.108;2022-09-21T06:18:48;10.63;;;9.60;;
26062;SDS011;13837;48.562;12.108;2022-09-21T06:21:14;10.93;;;9.95;;
26062;SDS011;13837;48.562;12.108;2022-09-21T06:23:40;10.00;;;9.20;;
26062;SDS011;13837;48.562;12.108;2022-09-21T06:26:06;11.65;;;10.55;;
26062;SDS011;13837;48.562;12.108;2022-09-21T06:28:32;10.63;;;9.68;;
26062;SDS011;13837;48.562;12.108;2022-09-21T06:30:58;9.45;;;8.75;;
26062;SDS011;13837;48.562;12.108;2022-09-21T06:33:24;11.63;;;10.60;;
26062;SDS011;13837;48.562;12.108;2022-09-21T06:35:51;14.20;;;10.98;;
26062;SDS011;13837;48.562;12.108;2022-09-21T06:38:25;12.32;;;11.20;;
26062;SDS011;13837;48.562;12.108;2022-09-21T06:40:53;12.35;;;11.13;;
26062;SDS011;13837;48.562;12.108;2022-09-21T06:43:19;16.50;;;10.43;;
26062;SDS011;13837;48.562;12.108;2022-09-21T06:45:55;26.13;;;10.85;;
26062;SDS011;13837;48.562;12.108;2022-09-21T06:48:22;103.78;;;14.88;;
26062;SDS011;13837;48.562;12.108;2022-09-21T06:50:49;21.40;;;12.18;;
26062;SDS011;13837;48.562;12.108;2022-09-21T06:53:16;11.40;;;10.50;;
26062;SDS011;13837;48.562;12.108;2022-09-21T06:55:42;11.75;;;10.80;;
26062;SDS011;13837;48.562;12.108;2022-09-21T06:58:08;11.20;;;10.35;;
26062;SDS011;13837;48.562;12.108;2022-09-21T07:00:34;11.23;;;10.40;;
26062;SDS011;13837;48.562;12.108;2022-09-21T07:03:00;10.82;;;9.95;;
26062;SDS011;13837;48.562;12.108;2022-09-21T07:05:26;11.35;;;10.40;;
26062;SDS011;13837;48.562;12.108;2022-09-21T07:07:55;13.20;;;11.80;;
26062;SDS011;13837;48.562;12.108;2022-09-21T07:10:22;12.95;;;11.75;;
26062;SDS011;13837;48.562;12.108;2022-09-21T07:12:49;13.73;;;11.30;;
26062;SDS011;13837;48.562;12.108;2022-09-21T07:15:16;12.13;;;10.88;;
26062;SDS011;13837;48.562;12.108;2022-09-21T07:17:46;11.50;;;10.50;;
26062;SDS011;13837;48.562;12.108;2022-09-21T07:20:12;12.05;;;10.95;;
26062;SDS011;13837;48.562;12.108;2022-09-21T07:22:38;12.02;;;10.02;;
26062;SDS011;13837;48.562;12.108;2022-09-21T07:25:04;12.20;;;9.95;;
26062;SDS011;13837;48.562;12.108;2022-09-21T07:27:31;10.70;;;9.73;;
26062;SDS011;13837;48.562;12.108;2022-09-21T07:29:57;14.48;;;9.32;;
26062;SDS011;13837;48.562;12.108;2022-09-21T07:32:23;9.73;;;8.77;;
26062;SDS011;13837;48.562;12.108;2022-09-21T07:34:50;8.90;;;8.20;;
26062;SDS011;13837;48.562;12.108;2022-09-21T07:37:20;9.07;;;8.27;;
26062;SDS011;13837;48.562;12.108;2022-09-21T07:39:49;8.70;;;7.77;;
26062;SDS011;13837;48.562;12.108;2022-09-21T07:42:16;8.35;;;7.55;;
26062;SDS011;13837;48.562;12.108;2022-09-21T07:44:44;8.50;;;7.53;;
26062;SDS011;13837;48.562;12.108;2022-09-21T07:47:11;8.57;;;7.75;;
26062;SDS011;13837;48.562;12.108;2022-09-21T07:49:38;7.07;;;6.47;;
26062;SDS011;13837;48.562;12.108;2022-09-21T07:52:04;8.00;;;7.40;;
26062;SDS011;13837;48.562;12.108;2022-09-21T07:54:30;8.98;;;7.15;;
26062;SDS011;13837;48.562;12.108;2022-09-21T07:56:58;8.32;;;7.45;;
26062;SDS011;13837;48.562;12.108;2022-09-21T07:59:42;7.03;;;6.53;;
26062;SDS011;13837;48.562;12.108;2022-09-21T08:02:08;8.27;;;6.57;;
26062;SDS011;13837;48.562;12.108;2022-09-21T08:04:34;7.88;;;6.32;;
26062;SDS011;13837;48.562;12.108;2022-09-21T08:07:01;6.72;;;5.88;;
26062;SDS011;13837;48.562;12.108;2022-09-21T08:09:29;5.60;;;5.20;;
26062;SDS011;13837;48.562;12.108;2022-09-21T08:11:59;6.53;;;5.93;;
26062;SDS011;13837;48.562;12.108;2022-09-21T08:14:25;8.02;;;5.90;;
26062;SDS011;13837;48.562;12.108;2022-09-21T08:16:51;6.43;;;5.78;;
26062;SDS011;13837;48.562;12.108;2022-09-21T08:19:19;7.97;;;6.35;;
26062;SDS011;13837;48.562;12.108;2022-09-21T08:21:47;6.93;;;6.33;;
26062;SDS011;13837;48.562;12.108;2022-09-21T08:24:15;7.05;;;5.78;;
26062;SDS011;13837;48.562;12.108;2022-09-21T08:26:42;6.82;;;6.13;;
26062;SDS011;13837;48.562;12.108;2022-09-21T08:29:17;6.38;;;5.50;;
26062;SDS011;13837;48.562;12.108;2022-09-21T08:31:43;6.35;;;5.72;;
26062;SDS011;13837;48.562;12.108;2022-09-21T08:34:11;6.50;;;5.90;;
26062;SDS011;13837;48.562;12.108;2022-09-21T08:39:08;6.63;;;5.70;;
26062;SDS011;13837;48.562;12.108;2022-09-21T08:46:58;5.38;;;4.88;;
26062;SDS011;13837;48.562;12.108;2022-09-21T08:49:25;5.00;;;4.60;;
26062;SDS011;13837;48.562;12.108;2022-09-21T08:52:08;4.95;;;4.50;;
26062;SDS011;13837;48.562;12.108;2022-09-21T08:57:17;5.20;;;3.88;;
26062;SDS011;13837;48.562;12.108;2022-09-21T08:59:53;3.95;;;3.55;;
26062;SDS011;13837;48.562;12.108;2022-09-21T09:15:05;2.92;;;2.72;;
26062;SDS011;13837;48.562;12.108;2022-09-21T09:20:25;2.83;;;2.63;;
26062;SDS011;13837;48.562;12.108;2022-09-21T09:25:36;3.35;;;2.47;;
26062;SDS011;13837;48.562;12.108;2022-09-21T09:34:12;4.95;;;2.47;;
26062;SDS011;13837;48.562;12.108;2022-09-21T09:36:43;3.42;;;2.30;;
26062;SDS011;13837;48.562;12.108;2022-09-21T09:39:13;3.35;;;2.22;;
26062;SDS011;13837;48.562;12.108;2022-09-21T09:50:38;2.40;;;2.20;;
26062;SDS011;13837;48.562;12.108;2022-09-21T09:53:16;2.50;;;2.30;;
26062;SDS011;13837;48.562;12.108;2022-09-21T09:55:48;2.63;;;2.40;;
26062;SDS011;13837;48.562;12.108;2022-09-21T10:00:42;2.47;;;2.03;;
26062;SDS011;13837;48.562;12.108;2022-09-21T10:03:16;2.58;;;1.80;;
26062;SDS011;13837;48.562;12.108;2022-09-21T10:05:44;2.30;;;2.10;;
26062;SDS011;13837;48.562;12.108;2022-09-21T10:11:08;2.53;;;2.22;;
26062;SDS011;13837;48.562;12.108;2022-09-21T10:13:38;3.58;;;2.08;;
26062;SDS011;13837;48.562;12.108;2022-09-21T10:24:04;3.30;;;1.73;;
26062;SDS011;13837;48.562;12.108;2022-09-21T10:26:47;2.42;;;1.73;;
26062;SDS011;13837;48.562;12.108;2022-09-21T10:35:11;5.78;;;2.60;;
26062;SDS011;13837;48.562;12.108;2022-09-21T10:37:46;2.85;;;1.45;;
26062;SDS011;13837;48.562;12.108;2022-09-21T10:42:44;1.92;;;1.40;;
26062;SDS011;13837;48.562;12.108;2022-09-21T10:45:14;1.48;;;1.38;;
26062;SDS011;13837;48.562;12.108;2022-09-21T10:47:46;1.80;;;1.70;;
26062;SDS011;13837;48.562;12.108;2022-09-21T10:52:47;1.55;;;1.45;;
26062;SDS011;13837;48.562;12.108;2022-09-21T10:55:17;1.48;;;1.38;;
26062;SDS011;13837;48.562;12.108;2022-09-21T10:57:45;1.67;;;1.52;;
26062;SDS011;13837;48.562;12.108;2022-09-21T11:02:57;1.15;;;1.05;;
26062;SDS011;13837;48.562;12.108;2022-09-21T11:05:26;1.65;;;1.45;;
26062;SDS011;13837;48.562;12.108;2022-09-21T11:08:22;1.70;;;1.60;;
26062;SDS011;13837;48.562;12.108;2022-09-21T11:13:59;1.27;;;1.17;;
26062;SDS011;13837;48.562;12.108;2022-09-21T11:16:57;2.22;;;1.45;;
26062;SDS011;13837;48.562;12.108;2022-09-21T11:19:37;1.85;;;1.70;;
26062;SDS011;13837;48.562;12.108;2022-09-21T11:28:42;1.55;;;1.23;;
26062;SDS011;13837;48.562;12.108;2022-09-21T11:45:29;1.08;;;1.00;;
26062;SDS011;13837;48.562;12.108;2022-09-21T11:48:43;1.17;;;1.08;;
26062;SDS011;13837;48.562;12.108;2022-09-21T11:54:20;2.53;;;1.10;;
26062;SDS011;13837;48.562;12.108;2022-09-21T12:00:18;0.90;;;0.90;;
26062;SDS011;13837;48.562;12.108;2022-09-21T12:22:04;1.17;;;1.05;;
26062;SDS011;13837;48.562;12.108;2022-09-21T12:30:16;1.17;;;1.02;;
26062;SDS011;13837;48.562;12.108;2022-09-21T12:40:57;1.25;;;1.00;;
26062;SDS011;13837;48.562;12.108;2022-09-21T12:43:42;1.77;;;0.80;;
26062;SDS011;13837;48.562;12.108;2022-09-21T12:48:47;2.15;;;0.98;;
26062;SDS011;13837;48.562;12.108;2022-09-21T12:51:18;0.82;;;0.70;;
26062;SDS011;13837;48.562;12.108;2022-09-21T12:53:51;1.00;;;1.00;;
26062;SDS011;13837;48.562;12.108;2022-09-21T13:01:49;1.58;;;1.27;;
26062;SDS011;13837;48.562;12.108;2022-09-21T13:04:34;2.05;;;1.25;;
26062;SDS011;13837;48.562;12.108;2022-09-21T13:07:47;1.17;;;1.10;;
26062;SDS011;13837;48.562;12.108;2022-09-21T13:10:38;2.55;;;0.98;;
26062;SDS011;13837;48.562;12.108;2022-09-21T13:15:51;1.55;;;0.90;;
26062;SDS011;13837;48.562;12.108;2022-09-21T13:18:21;0.85;;;0.85;;
26062;SDS011;13837;48.562;12.108;2022-09-21T13:21:16;0.88;;;0.73;;
26062;SDS011;13837;48.562;12.108;2022-09-21T13:24:03;1.55;;;0.95;;
26062;SDS011;13837;48.562;12.108;2022-09-21T13:26:33;1.05;;;1.00;;
26062;SDS011;13837;48.562;12.108;2022-09-21T13:31:29;0.80;;;0.80;;
26062;SDS011;13837;48.562;12.108;2022-09-21T13:39:47;0.80;;;0.80;;
26062;SDS011;13837;48.562;12.108;2022-09-21T13:47:39;0.73;;;0.73;;
26062;SDS011;13837;48.562;12.108;2022-09-21T13:52:50;1.80;;;0.95;;
26062;SDS011;13837;48.562;12.108;2022-09-21T13:55:33;1.20;;;1.10;;
26062;SDS011;13837;48.562;12.108;2022-09-21T13:58:06;1.20;;;1.10;;
26062;SDS011;13837;48.562;12.108;2022-09-21T14:00:54;2.20;;;1.20;;
26062;SDS011;13837;48.562;12.108;2022-09-21T14:03:27;1.75;;;1.13;;
26062;SDS011;13837;48.562;12.108;2022-09-21T14:06:05;1.10;;;1.00;;
26062;SDS011;13837;48.562;12.108;2022-09-21T14:08:39;0.95;;;0.68;;
26062;SDS011;13837;48.562;12.108;2022-09-21T14:11:14;0.90;;;0.90;;
26062;SDS011;13837;48.562;12.108;2022-09-21T14:13:43;1.27;;;1.02;;
26062;SDS011;13837;48.562;12.108;2022-09-21T14:18:58;2.83;;;0.70;;
26062;SDS011;13837;48.562;12.108;2022-09-21T14:21:25;0.70;;;0.70;;
26062;SDS011;13837;48.562;12.108;2022-09-21T14:26:58;2.55;;;0.70;;
26062;SDS011;13837;48.562;12.108;2022-09-21T14:32:16;2.83;;;0.85;;
26062;SDS011;13837;48.562;12.108;2022-09-21T14:34:45;1.58;;;0.70;;
26062;SDS011;13837;48.562;12.108;2022-09-21T14:37:24;0.60;;;0.60;;
26062;SDS011;13837;48.562;12.108;2022-09-21T14:39:55;1.10;;;0.60;;
26062;SDS011;13837;48.562;12.108;2022-09-21T14:42:24;0.98;;;0.88;;
26062;SDS011;13837;48.562;12.108;2022-09-21T14:44:59;2.20;;;0.80;;
26062;SDS011;13837;48.562;12.108;2022-09-21T14:47:30;2.17;;;0.70;;
26062;SDS011;13837;48.562;12.108;2022-09-21T14:50:16;1.67;;;0.90;;
26062;SDS011;13837;48.562;12.108;2022-09-21T14:52:54;1.40;;;0.80;;
26062;SDS011;13837;48.562;12.108;2022-09-21T15:04:16;0.90;;;0.70;;
26062;SDS011;13837;48.562;12.108;2022-09-21T15:07:06;0.80;;;0.80;;
26062;SDS011;13837;48.562;12.108;2022-09-21T15:13:10;0.70;;;0.70;;
26062;SDS011;13837;48.562;12.108;2022-09-21T15:18:22;1.50;;;0.70;;
26062;SDS011;13837;48.562;12.108;2022-09-21T15:20:53;0.80;;;0.80;;
26062;SDS011;13837;48.562;12.108;2022-09-21T15:23:26;0.77;;;0.77;;
26062;SDS011;13837;48.562;12.108;2022-09-21T15:25:55;0.80;;;0.80;;
26062;SDS011;13837;48.562;12.108;2022-09-21T15:28:29;0.85;;;0.85;;
26062;SDS011;13837;48.562;12.108;2022-09-21T15:31:03;0.82;;;0.80;;
26062;SDS011;13837;48.562;12.108;2022-09-21T15:33:35;2.08;;;0.68;;
26062;SDS011;13837;48.562;12.108;2022-09-21T15:36:06;1.17;;;0.88;;
26062;SDS011;13837;48.562;12.108;2022-09-21T15:38:34;1.17;;;1.17;;
26062;SDS011;13837;48.562;12.108;2022-09-21T15:41:03;1.00;;;1.00;;
26062;SDS011;13837;48.562;12.108;2022-09-21T15:43:31;0.77;;;0.77;;
26062;SDS011;13837;48.562;12.108;2022-09-21T15:46:05;1.05;;;0.90;;
26062;SDS011;13837;48.562;12.108;2022-09-21T15:48:39;1.45;;;0.98;;
26062;SDS011;13837;48.562;12.108;2022-09-21T15:51:23;2.83;;;1.00;;
26062;SDS011;13837;48.562;12.108;2022-09-21T15:54:01;1.95;;;1.00;;
26062;SDS011;13837;48.562;12.108;2022-09-21T15:56:33;1.58;;;0.85;;
26062;SDS011;13837;48.562;12.108;2022-09-21T15:59:05;0.80;;;0.80;;
26062;SDS011;13837;48.562;12.108;2022-09-21T16:01:40;1.02;;;0.90;;
26062;SDS011;13837;48.562;12.108;2022-09-21T16:04:17;0.85;;;0.85;;
26062;SDS011;13837;48.562;12.108;2022-09-21T16:06:47;1.05;;;0.90;;
26062;SDS011;13837;48.562;12.108;2022-09-21T16:11:51;1.88;;;1.20;;
26062;SDS011;13837;48.562;12.108;2022-09-21T16:14:18;1.48;;;1.08;;
26062;SDS011;13837;48.562;12.108;2022-09-21T16:17:04;1.00;;;1.00;;
26062;SDS011;13837;48.562;12.108;2022-09-21T16:22:28;2.00;;;1.17;;
26062;SDS011;13837;48.562;12.108;2022-09-21T16:24:58;1.40;;;1.30;;
26062;SDS011;13837;48.562;12.108;2022-09-21T16:27:26;2.08;;;1.40;;
26062;SDS011;13837;48.562;12.108;2022-09-21T16:32:29;1.40;;;1.30;;
26062;SDS011;13837;48.562;12.108;2022-09-21T16:37:59;1.52;;;1.40;;
26062;SDS011;13837;48.562;12.108;2022-09-21T16:40:26;1.17;;;1.17;;
26062;SDS011;13837;48.562;12.108;2022-09-21T16:42:53;1.50;;;1.40;;
26062;SDS011;13837;48.562;12.108;2022-09-21T16:45:28;1.35;;;1.30;;
26062;SDS011;13837;48.562;12.108;2022-09-21T16:47:56;1.17;;;1.17;;
26062;SDS011;13837;48.562;12.108;2022-09-21T16:50:24;1.40;;;1.30;;
26062;SDS011;13837;48.562;12.108;2022-09-21T16:52:50;1.10;;;1.10;;
26062;SDS011;13837;48.562;12.108;2022-09-21T16:55:20;1.40;;;1.40;;
26062;SDS011;13837;48.562;12.108;2022-09-21T16:57:46;1.70;;;1.60;;
26062;SDS011;13837;48.562;12.108;2022-09-21T17:00:14;1.60;;;1.50;;
26062;SDS011;13837;48.562;12.108;2022-09-21T17:02:45;2.60;;;1.70;;
26062;SDS011;13837;48.562;12.108;2022-09-21T17:05:12;2.47;;;2.00;;
26062;SDS011;13837;48.562;12.108;2022-09-21T17:10:19;1.65;;;1.55;;
26062;SDS011;13837;48.562;12.108;2022-09-21T17:12:53;1.52;;;1.50;;
26062;SDS011;13837;48.562;12.108;2022-09-21T17:15:20;1.85;;;1.60;;
26062;SDS011;13837;48.562;12.108;2022-09-21T17:17:47;1.80;;;1.70;;
26062;SDS011;13837;48.562;12.108;2022-09-21T17:20:19;1.80;;;1.70;;
26062;SDS011;13837;48.562;12.108;2022-09-21T17:22:53;2.10;;;1.90;;
26062;SDS011;13837;48.562;12.108;2022-09-21T17:25:19;2.00;;;1.80;;
26062;SDS011;13837;48.562;12.108;2022-09-21T17:27:45;1.70;;;1.60;;
26062;SDS011;13837;48.562;12.108;2022-09-21T17:30:12;2.00;;;1.75;;
26062;SDS011;13837;48.562;12.108;2022-09-21T17:32:40;2.33;;;1.75;;
26062;SDS011;13837;48.562;12.108;2022-09-21T17:35:13;2.47;;;2.20;;
26062;SDS011;13837;48.562;12.108;2022-09-21T17:37:43;2.42;;;2.22;;
26062;SDS011;13837;48.562;12.108;2022-09-21T17:40:10;2.25;;;2.05;;
26062;SDS011;13837;48.562;12.108;2022-09-21T17:42:38;2.50;;;2.30;;
26062;SDS011;13837;48.562;12.108;2022-09-21T17:47:53;6.28;;;2.67;;
26062;SDS011;13837;48.562;12.108;2022-09-21T17:50:23;2.95;;;2.72;;
26062;SDS011;13837;48.562;12.108;2022-09-21T17:52:51;2.60;;;2.40;;
26062;SDS011;13837;48.562;12.108;2022-09-21T17:55:38;4.38;;;2.92;;
26062;SDS011;13837;48.562;12.108;2022-09-21T18:03:34;3.60;;;3.30;;
26062;SDS011;13837;48.562;12.108;2022-09-21T18:06:06;3.97;;;3.58;;
26062;SDS011;13837;48.562;12.108;2022-09-21T18:08:34;3.67;;;3.38;;
26062;SDS011;13837;48.562;12.108;2022-09-21T18:25:22;10.23;;;6.38;;
26062;SDS011;13837;48.562;12.108;2022-09-21T18:27:56;6.00;;;5.40;;
26062;SDS011;13837;48.562;12.108;2022-09-21T18:30:24;5.23;;;4.73;;
26062;SDS011;13837;48.562;12.108;2022-09-21T18:32:59;6.75;;;5.82;;
26062;SDS011;13837;48.562;12.108;2022-09-21T18:35:36;6.25;;;5.65;;
26062;SDS011;13837;48.562;12.108;2022-09-21T18:46:54;10.15;;;8.07;;
26062;SDS011;13837;48.562;12.108;2022-09-21T18:52:48;11.63;;;7.55;;
26062;SDS011;13837;48.562;12.108;2022-09-21T18:55:25;8.98;;;8.13;;
26062;SDS011;13837;48.562;12.108;2022-09-21T18:57:53;12.27;;;8.18;;
26062;SDS011;13837;48.562;12.108;2022-09-21T19:00:21;9.23;;;8.40;;
26062;SDS011;13837;48.562;12.108;2022-09-21T19:02:48;9.90;;;8.98;;
26062;SDS011;13837;48.562;12.108;2022-09-21T19:05:15;9.43;;;8.73;;
26062;SDS011;13837;48.562;12.108;2022-09-21T19:07:50;10.93;;;9.80;;
26062;SDS011;13837;48.562;12.108;2022-09-21T19:10:42;9.30;;;8.40;;
26062;SDS011;13837;48.562;12.108;2022-09-21T19:13:36;8.02;;;7.32;;
26062;SDS011;13837;48.562;12.108;2022-09-21T19:16:19;7.95;;;7.25;;
26062;SDS011;13837;48.562;12.108;2022-09-21T19:19:13;7.75;;;6.95;;
26062;SDS011;13837;48.562;12.108;2022-09-21T19:22:14;8.68;;;7.65;;
26062;SDS011;13837;48.562;12.108;2022-09-21T19:27:32;9.25;;;8.45;;
26062;SDS011;13837;48.562;12.108;2022-09-21T19:35:17;9.65;;;8.05;;
26062;SDS011;13837;48.562;12.108;2022-09-21T19:37:44;8.73;;;7.93;;
26062;SDS011;13837;48.562;12.108;2022-09-21T19:40:11;10.68;;;9.23;;
26062;SDS011;13837;48.562;12.108;2022-09-21T19:42:51;10.10;;;9.10;;
26062;SDS011;13837;48.562;12.108;2022-09-21T19:45:31;9.25;;;8.55;;